createdAt,value
2022-08-26T00:00:06.762Z,101475.75
2022-08-26T00:02:59.129Z,101478.41
2022-08-26T00:05:46.445Z,101474.91
2022-08-26T00:08:31.857Z,101474.94
2022-08-26T00:11:26.889Z,101482.81
2022-08-26T00:14:14.028Z,101485.47
2022-08-26T00:16:59.427Z,101483.72
2022-08-26T00:19:45.448Z,101488.06
2022-08-26T00:22:33.019Z,101484.56
2022-08-26T00:25:19.042Z,101482.78
2022-08-26T00:28:06.414Z,101486.28
2022-08-26T00:30:53.267Z,101481.03
2022-08-26T00:33:39.877Z,101476.63
2022-08-26T00:36:25.510Z,101481.91
2022-08-26T00:39:15.513Z,101481.97
2022-08-26T00:42:02.381Z,101480.22
2022-08-26T00:44:47.738Z,101482.00
2022-08-26T00:47:38.823Z,101473.22
2022-08-26T00:50:31.669Z,101459.19
2022-08-26T00:53:26.044Z,101454.00
2022-08-26T00:56:41.229Z,101453.16
2022-08-26T00:59:32.780Z,101456.78
2022-08-26T01:02:21.202Z,101453.34
2022-08-26T01:05:09.847Z,101458.75
2022-08-26T01:07:55.535Z,101462.47
2022-08-26T01:10:43.353Z,101469.53
2022-08-26T01:13:30.988Z,101467.78
2022-08-26T01:16:17.185Z,101474.81
2022-08-26T01:19:14.803Z,101465.16
2022-08-26T01:22:06.119Z,101467.94
2022-08-26T01:24:51.557Z,101471.44
2022-08-26T01:27:37.112Z,101460.22
2022-08-26T01:30:23.060Z,101485.72
2022-08-26T01:33:13.077Z,101471.81
2022-08-26T01:36:00.153Z,101477.97
2022-08-26T01:38:45.552Z,101478.94
2022-08-26T01:41:32.260Z,101481.63
2022-08-26T01:44:23.850Z,101474.63
2022-08-26T01:47:10.224Z,101483.41
2022-08-26T01:50:00.003Z,101493.03
2022-08-26T01:52:48.114Z,101499.97
2022-08-26T01:55:44.304Z,101506.97
2022-08-26T01:58:39.185Z,101504.28
2022-08-26T02:01:29.098Z,101501.63
2022-08-26T02:04:26.675Z,101516.44
2022-08-26T02:07:12.813Z,101519.00
2022-08-26T02:09:58.130Z,101519.81
2022-08-26T02:12:43.552Z,101515.44
2022-08-26T02:15:29.614Z,101518.00
2022-08-26T02:18:15.240Z,101521.50
2022-08-26T02:21:01.652Z,101526.69
2022-08-26T02:23:47.693Z,101528.41
2022-08-26T02:26:34.812Z,101525.78
2022-08-26T02:29:25.653Z,101536.31
2022-08-26T02:32:11.257Z,101529.31
2022-08-26T02:34:56.727Z,101531.97
2022-08-26T02:37:42.509Z,101538.97
2022-08-26T02:40:36.788Z,101542.47
2022-08-26T02:43:23.916Z,101540.75
2022-08-26T02:46:27.635Z,101547.78
2022-08-26T02:49:14.073Z,101550.41
2022-08-26T02:52:02.002Z,101546.03
2022-08-26T02:54:48.055Z,101545.19
2022-08-26T02:57:35.112Z,101547.81
2022-08-26T03:00:20.924Z,101541.72
2022-08-26T03:03:06.966Z,101552.22
2022-08-26T03:05:53.799Z,101539.97
2022-08-26T03:08:39.964Z,101544.34
2022-08-26T03:11:29.636Z,101548.69
2022-08-26T03:14:17.737Z,101545.22
2022-08-26T03:17:03.689Z,101550.47
2022-08-26T03:19:54.254Z,101551.31
2022-08-26T03:22:43.491Z,101559.19
2022-08-26T03:25:28.978Z,101553.94
2022-08-26T03:28:15.007Z,101548.69
2022-08-26T03:31:05.628Z,101542.50
2022-08-26T03:33:51.480Z,101539.88
2022-08-26T03:36:37.689Z,101540.72
2022-08-26T03:39:23.292Z,101541.63
2022-08-26T03:42:08.849Z,101541.63
2022-08-26T03:44:56.678Z,101545.09
2022-08-26T03:47:42.789Z,101532.84
2022-08-26T03:50:28.518Z,101531.09
2022-08-26T03:53:14.252Z,101544.25
2022-08-26T03:55:59.680Z,101539.00
2022-08-26T03:58:45.913Z,101539.88
2022-08-26T04:01:31.666Z,101541.66
2022-08-26T04:04:18.302Z,101541.69
2022-08-26T04:07:08.717Z,101540.84
2022-08-26T04:09:56.309Z,101540.00
2022-08-26T04:12:41.868Z,101532.13
2022-08-26T04:15:28.282Z,101527.78
2022-08-26T04:18:13.739Z,101522.53
2022-08-26T04:20:59.050Z,101530.44
2022-08-26T04:23:47.504Z,101526.13
2022-08-26T04:26:39.530Z,101525.28
2022-08-26T04:29:28.368Z,101536.66
2022-08-26T04:32:13.842Z,101534.91
2022-08-26T04:34:59.552Z,101539.28
2022-08-26T04:37:49.022Z,101541.06
2022-08-26T04:40:34.740Z,101534.06
2022-08-26T04:43:20.696Z,101537.56
2022-08-26T04:46:07.060Z,101535.84
2022-08-26T04:48:53.908Z,101541.09
2022-08-26T04:51:40.410Z,101543.72
2022-08-26T04:54:26.491Z,101544.59
2022-08-26T04:57:11.971Z,101549.84
2022-08-26T04:59:58.132Z,101554.19
2022-08-26T05:02:43.801Z,101551.59
2022-08-26T05:05:29.131Z,101555.97
2022-08-26T05:08:15.692Z,101559.44
2022-08-26T05:11:04.804Z,101562.06
2022-08-26T05:13:51.061Z,101560.31
2022-08-26T05:16:37.273Z,101570.84
2022-08-26T05:19:27.777Z,101568.19
2022-08-26T05:22:14.444Z,101573.41
2022-08-26T05:25:00.330Z,101568.19
2022-08-26T05:27:45.982Z,101576.94
2022-08-26T05:30:31.672Z,101579.56
2022-08-26T05:33:19.462Z,101579.53
2022-08-26T05:36:12.610Z,101585.66
2022-08-26T05:38:58.803Z,101591.75
2022-08-26T05:41:44.845Z,101597.91
2022-08-26T05:44:53.577Z,101597.00
2022-08-26T05:47:36.113Z,101603.13
2022-08-26T05:50:23.184Z,101608.38
2022-08-26T05:53:11.172Z,101612.75
2022-08-26T05:55:56.990Z,101611.88
2022-08-26T05:58:43.901Z,101608.41
2022-08-26T06:01:32.612Z,101607.50
2022-08-26T06:04:21.467Z,101604.91
2022-08-26T06:07:07.416Z,101609.28
2022-08-26T06:10:15.350Z,101612.78
2022-08-26T06:13:11.891Z,101620.63
2022-08-26T06:15:59.313Z,101618.00
2022-08-26T06:18:47.232Z,101621.53
2022-08-26T06:21:34.810Z,101621.53
2022-08-26T06:24:38.965Z,101618.88
2022-08-26T06:27:28.357Z,101628.50
2022-08-26T06:30:17.844Z,101630.25
2022-08-26T06:33:04.356Z,101623.25
2022-08-26T06:35:52.061Z,101633.75
2022-08-26T06:38:37.709Z,101626.75
2022-08-26T06:41:24.401Z,101632.88
2022-08-26T06:44:11.765Z,101626.78
2022-08-26T06:46:57.320Z,101632.88
2022-08-26T06:49:44.208Z,101641.59
2022-08-26T06:52:29.986Z,101638.13
2022-08-26T06:55:15.459Z,101646.84
2022-08-26T06:58:00.854Z,101651.22
2022-08-26T07:00:47.195Z,101651.22
2022-08-26T07:03:35.404Z,101656.47
2022-08-26T07:06:27.458Z,101648.59
2022-08-26T07:09:13.213Z,101648.63
2022-08-26T07:11:59.660Z,101652.09
2022-08-26T07:14:47.475Z,101650.34
2022-08-26T07:17:34.069Z,101649.50
2022-08-26T07:20:19.804Z,101652.13
2022-08-26T07:23:07.039Z,101658.22
2022-08-26T07:25:57.721Z,101656.47
2022-08-26T07:28:46.369Z,101663.47
2022-08-26T07:31:42.195Z,101667.81
2022-08-26T07:34:28.805Z,101666.97
2022-08-26T07:37:15.285Z,101673.09
2022-08-26T07:40:04.046Z,101673.94
2022-08-26T07:42:50.571Z,101664.34
2022-08-26T07:45:36.207Z,101672.22
2022-08-26T07:48:22.255Z,101672.22
2022-08-26T07:51:07.998Z,101669.59
2022-08-26T07:53:54.494Z,101680.09
2022-08-26T07:56:39.856Z,101676.59
2022-08-26T07:59:29.745Z,101680.06
2022-08-26T08:02:15.926Z,101678.31
2022-08-26T08:05:02.050Z,101678.31
2022-08-26T08:07:48.876Z,101688.81
2022-08-26T08:10:39.896Z,101680.94
2022-08-26T08:13:25.672Z,101682.72
2022-08-26T08:16:12.532Z,101680.94
2022-08-26T08:18:58.608Z,101685.34
2022-08-26T08:21:44.937Z,101680.97
2022-08-26T08:24:30.737Z,101688.84
2022-08-26T08:27:17.213Z,101687.97
2022-08-26T08:30:07.570Z,101681.81
2022-08-26T08:32:53.873Z,101683.56
2022-08-26T08:35:42.421Z,101685.34
2022-08-26T08:38:29.436Z,101693.19
2022-08-26T08:41:45.158Z,101694.94
2022-08-26T08:44:31.338Z,101699.34
2022-08-26T08:47:55.419Z,101696.69
2022-08-26T08:50:48.975Z,101698.44
2022-08-26T08:53:43.193Z,101699.31
2022-08-26T08:56:53.168Z,101715.94
2022-08-26T08:59:53.365Z,101710.69
2022-08-26T09:02:42.651Z,101706.34
2022-08-26T09:05:40.267Z,101701.06
2022-08-26T09:08:30.373Z,101690.56
2022-08-26T09:11:17.685Z,101691.47
2022-08-26T09:14:03.350Z,101701.06
2022-08-26T09:16:59.503Z,101691.41
2022-08-26T09:19:52.931Z,101687.91
2022-08-26T09:22:39.761Z,101685.25
2022-08-26T09:25:29.824Z,101686.97
2022-08-26T09:28:20.537Z,101679.97
2022-08-26T09:31:22.129Z,101686.94
2022-08-26T09:34:17.345Z,101698.34
2022-08-26T09:37:04.665Z,101693.09
2022-08-26T09:39:50.512Z,101698.34
2022-08-26T09:42:36.859Z,101702.69
2022-08-26T09:45:28.832Z,101704.41
2022-08-26T09:48:45.484Z,101695.66
2022-08-26T09:51:32.390Z,101696.47
2022-08-26T09:54:30.186Z,101699.09
2022-08-26T09:57:34.617Z,101695.59
2022-08-26T10:00:40.247Z,101691.19
2022-08-26T10:03:31.648Z,101700.78
2022-08-26T10:06:17.658Z,101697.22
2022-08-26T10:09:10.926Z,101698.09
2022-08-26T10:12:00.798Z,101694.53
2022-08-26T10:14:52.200Z,101698.88
2022-08-26T10:17:46.618Z,101712.06
2022-08-26T10:20:38.326Z,101704.28
2022-08-26T10:23:29.575Z,101705.16
2022-08-26T10:26:39.012Z,101708.66
2022-08-26T10:29:34.500Z,101706.84
2022-08-26T10:32:19.746Z,101709.41
2022-08-26T10:35:09.854Z,101708.50
2022-08-26T10:38:01.185Z,101719.97
2022-08-26T10:41:16.822Z,101719.09
2022-08-26T10:44:09.916Z,101707.75
2022-08-26T10:47:03.565Z,101727.88
2022-08-26T10:49:57.545Z,101719.97
2022-08-26T10:53:02.923Z,101724.41
2022-08-26T10:55:57.109Z,101718.22
2022-08-26T10:59:12.682Z,101721.72
2022-08-26T11:02:08.825Z,101719.91
2022-08-26T11:05:04.478Z,101719.84
2022-08-26T11:08:13.677Z,101725.03
2022-08-26T11:11:00.351Z,101715.38
2022-08-26T11:14:01.170Z,101717.13
2022-08-26T11:16:52.343Z,101717.97
2022-08-26T11:20:01.630Z,101721.38
2022-08-26T11:22:48.293Z,101724.84
2022-08-26T11:25:34.138Z,101711.59
2022-08-26T11:28:40.092Z,101720.44
2022-08-26T11:31:30.657Z,101708.09
2022-08-26T11:34:17.454Z,101709.84
2022-08-26T11:37:12.652Z,101713.44
2022-08-26T11:39:58.200Z,101717.75
2022-08-26T11:42:51.740Z,101711.63
2022-08-26T11:45:41.742Z,101708.19
2022-08-26T11:48:31.068Z,101706.19
2022-08-26T11:51:16.573Z,101706.84
2022-08-26T11:54:30.483Z,101710.91
2022-08-26T11:57:20.651Z,101714.38
2022-08-26T12:00:14.234Z,101715.13
2022-08-26T12:03:07.570Z,101712.69
2022-08-26T12:05:54.447Z,101709.00
2022-08-26T12:08:43.910Z,101709.25
2022-08-26T12:11:33.671Z,101711.16
2022-08-26T12:14:24.395Z,101717.22
2022-08-26T12:17:16.513Z,101727.13
2022-08-26T12:20:02.874Z,101727.34
2022-08-26T12:22:48.636Z,101716.75
2022-08-26T12:25:36.161Z,101718.34
2022-08-26T12:28:23.105Z,101723.53
2022-08-26T12:31:08.793Z,101715.63
2022-08-26T12:33:56.045Z,101721.75
2022-08-26T12:36:55.778Z,101719.38
2022-08-26T12:39:45.054Z,101727.38
2022-08-26T12:42:42.152Z,101731.84
2022-08-26T12:45:34.912Z,101734.50
2022-08-26T12:48:32.897Z,101729.22
2022-08-26T12:51:30.450Z,101735.25
2022-08-26T12:54:17.831Z,101727.06
2022-08-26T12:57:13.346Z,101722.59
2022-08-26T13:00:35.201Z,101719.53
2022-08-26T13:03:40.447Z,101716.66
2022-08-26T13:06:30.111Z,101712.25
2022-08-26T13:09:18.438Z,101725.50
2022-08-26T13:12:04.395Z,101731.06
2022-08-26T13:14:50.916Z,101731.19
2022-08-26T13:17:37.866Z,101731.03
2022-08-26T13:20:23.769Z,101719.16
2022-08-26T13:23:09.219Z,101712.44
2022-08-26T13:25:54.616Z,101720.41
2022-08-26T13:28:40.791Z,101712.06
2022-08-26T13:31:29.504Z,101714.00
2022-08-26T13:34:21.581Z,101714.41
2022-08-26T13:37:07.269Z,101714.31
2022-08-26T13:39:54.172Z,101706.13
2022-08-26T13:42:49.573Z,101704.31
2022-08-26T13:45:36.843Z,101711.56
2022-08-26T13:48:23.681Z,101722.81
2022-08-26T13:51:09.358Z,101718.34
2022-08-26T13:53:55.154Z,101714.19
2022-08-26T13:56:41.003Z,101718.66
2022-08-26T13:59:26.648Z,101725.09
2022-08-26T14:02:12.155Z,101724.34
2022-08-26T14:04:57.569Z,101717.25
2022-08-26T14:07:42.967Z,101722.41
2022-08-26T14:10:28.411Z,101721.63
2022-08-26T14:13:14.510Z,101713.50
2022-08-26T14:16:01.690Z,101710.50
2022-08-26T14:18:50.749Z,101708.53
2022-08-26T14:21:38.869Z,101706.50
2022-08-26T14:24:24.621Z,101706.47
2022-08-26T14:27:10.379Z,101710.00
2022-08-26T14:29:55.747Z,101706.41
2022-08-26T14:32:45.695Z,101707.34
2022-08-26T14:35:31.322Z,101707.47
2022-08-26T14:38:17.347Z,101710.31
2022-08-26T14:41:03.353Z,101707.78
2022-08-26T14:44:00.247Z,101713.09
2022-08-26T14:46:48.730Z,101707.00
2022-08-26T14:49:34.627Z,101708.63
2022-08-26T14:52:19.993Z,101704.13
2022-08-26T14:55:05.805Z,101701.28
2022-08-26T14:57:51.077Z,101694.00
2022-08-26T15:00:37.534Z,101703.53
2022-08-26T15:03:22.966Z,101701.19
2022-08-26T15:06:09.641Z,101696.03
2022-08-26T15:08:55.558Z,101696.91
2022-08-26T15:11:41.477Z,101697.06
2022-08-26T15:14:30.913Z,101696.91
2022-08-26T15:17:18.465Z,101706.66
2022-08-26T15:20:06.324Z,101690.84
2022-08-26T15:22:52.039Z,101692.59
2022-08-26T15:25:38.602Z,101694.28
2022-08-26T15:28:23.888Z,101692.59
2022-08-26T15:31:09.801Z,101690.75
2022-08-26T15:33:59.467Z,101684.28
2022-08-26T15:36:47.075Z,101683.88
2022-08-26T15:39:32.845Z,101680.88
2022-08-26T15:42:18.829Z,101689.63
2022-08-26T15:45:05.361Z,101682.50
2022-08-26T15:48:11.110Z,101686.56
2022-08-26T15:51:02.672Z,101688.50
2022-08-26T15:53:48.696Z,101684.91
2022-08-26T15:56:36.255Z,101680.69
2022-08-26T15:59:22.697Z,101681.75
2022-08-26T16:02:09.172Z,101668.44
2022-08-26T16:04:55.002Z,101675.31
2022-08-26T16:07:40.570Z,101674.75
2022-08-26T16:10:26.190Z,101676.94
2022-08-26T16:13:14.737Z,101674.31
2022-08-26T16:16:01.557Z,101669.22
2022-08-26T16:18:49.698Z,101669.66
2022-08-26T16:21:36.129Z,101669.13
2022-08-26T16:24:24.786Z,101670.00
2022-08-26T16:27:13.151Z,101675.03
2022-08-26T16:29:58.505Z,101675.06
2022-08-26T16:32:43.897Z,101665.16
2022-08-26T16:35:29.728Z,101665.25
2022-08-26T16:38:15.720Z,101665.97
2022-08-26T16:41:01.812Z,101665.78
2022-08-26T16:43:47.381Z,101661.38
2022-08-26T16:46:33.971Z,101663.09
2022-08-26T16:49:20.300Z,101660.63
2022-08-26T16:52:06.890Z,101662.50
2022-08-26T16:54:53.212Z,101663.59
2022-08-26T16:57:44.130Z,101667.41
2022-08-26T17:00:33.113Z,101658.69
2022-08-26T17:03:18.453Z,101660.50
2022-08-26T17:06:03.869Z,101664.13
2022-08-26T17:08:49.320Z,101661.56
2022-08-26T17:11:35.582Z,101671.31
2022-08-26T17:14:21.760Z,101662.69
2022-08-26T17:17:07.017Z,101670.81
2022-08-26T17:19:52.491Z,101677.06
2022-08-26T17:22:44.861Z,101674.44
2022-08-26T17:25:32.161Z,101667.53
2022-08-26T17:28:17.861Z,101670.31
2022-08-26T17:31:04.360Z,101669.38
2022-08-26T17:33:53.849Z,101670.25
2022-08-26T17:36:39.877Z,101671.06
2022-08-26T17:39:25.253Z,101675.41
2022-08-26T17:42:12.019Z,101670.97
2022-08-26T17:44:57.626Z,101677.13
2022-08-26T17:47:43.634Z,101670.22
2022-08-26T17:50:29.223Z,101679.09
2022-08-26T17:53:18.956Z,101682.63
2022-08-26T17:56:07.322Z,101683.56
2022-08-26T17:58:56.876Z,101686.28
2022-08-26T18:01:42.637Z,101691.63
2022-08-26T18:04:28.155Z,101682.88
2022-08-26T18:07:13.670Z,101689.00
2022-08-26T18:10:01.615Z,101688.00
2022-08-26T18:12:48.226Z,101686.03
2022-08-26T18:15:34.141Z,101693.03
2022-08-26T18:18:19.595Z,101691.91
2022-08-26T18:21:22.094Z,101696.22
2022-08-26T18:24:12.119Z,101692.69
2022-08-26T18:26:59.396Z,101701.25
2022-08-26T18:29:48.534Z,101700.94
2022-08-26T18:32:34.282Z,101705.28
2022-08-26T18:35:21.537Z,101701.28
2022-08-26T18:38:11.430Z,101705.91
2022-08-26T18:40:57.236Z,101703.72
2022-08-26T18:43:43.290Z,101700.22
2022-08-26T18:46:29.156Z,101702.13
2022-08-26T18:49:16.585Z,101704.94
2022-08-26T18:52:02.338Z,101702.53
2022-08-26T18:54:48.216Z,101706.22
2022-08-26T18:57:33.858Z,101708.13
2022-08-26T19:00:19.194Z,101710.88
2022-08-26T19:03:05.171Z,101718.84
2022-08-26T19:06:01.741Z,101720.72
2022-08-26T19:08:49.980Z,101725.22
2022-08-26T19:11:37.268Z,101727.03
2022-08-26T19:14:24.195Z,101730.56
2022-08-26T19:17:10.372Z,101736.81
2022-08-26T19:19:56.356Z,101732.53
2022-08-26T19:22:41.819Z,101736.13
2022-08-26T19:25:27.378Z,101738.81
2022-08-26T19:28:13.214Z,101739.75
2022-08-26T19:31:00.018Z,101738.06
2022-08-26T19:33:45.644Z,101745.16
2022-08-26T19:36:31.964Z,101745.22
2022-08-26T19:39:17.713Z,101751.41
2022-08-26T19:42:03.465Z,101761.09
2022-08-26T19:45:07.481Z,101761.13
2022-08-26T19:48:11.229Z,101762.03
2022-08-26T19:50:57.021Z,101762.94
2022-08-26T19:53:44.163Z,101762.09
2022-08-26T19:56:29.764Z,101758.63
2022-08-26T19:59:15.529Z,101767.41
2022-08-26T20:02:02.188Z,101757.78
2022-08-26T20:04:48.242Z,101769.22
2022-08-26T20:07:33.806Z,101770.09
2022-08-26T20:10:22.934Z,101774.47
2022-08-26T20:13:08.774Z,101775.38
2022-08-26T20:15:54.733Z,101776.28
2022-08-26T20:19:00.501Z,101771.03
2022-08-26T20:21:46.699Z,101775.41
2022-08-26T20:24:33.310Z,101781.50
2022-08-26T20:27:18.651Z,101783.22
2022-08-26T20:30:05.775Z,101783.16
2022-08-26T20:32:51.426Z,101783.09
2022-08-26T20:35:36.655Z,101783.88
2022-08-26T20:38:22.363Z,101783.81
2022-08-26T20:41:07.550Z,101784.59
2022-08-26T20:43:53.963Z,101782.72
2022-08-26T20:46:40.677Z,101787.81
2022-08-26T20:49:27.543Z,101796.47
2022-08-26T20:52:13.986Z,101794.63
2022-08-26T20:54:59.409Z,101795.34
2022-08-26T20:57:44.689Z,101803.09
2022-08-26T21:00:30.139Z,101807.41
2022-08-26T21:03:15.507Z,101807.28
2022-08-26T21:06:01.093Z,101808.84
2022-08-26T21:08:47.460Z,101812.25
2022-08-26T21:11:34.017Z,101817.41
2022-08-26T21:14:20.717Z,101813.72
2022-08-26T21:17:06.126Z,101812.81
2022-08-26T21:19:52.173Z,101810.91
2022-08-26T21:22:37.676Z,101804.72
2022-08-26T21:25:23.554Z,101820.56
2022-08-26T21:28:08.994Z,101824.16
2022-08-26T21:30:54.806Z,101828.47
2022-08-26T21:33:41.008Z,101821.41
2022-08-26T21:36:26.920Z,101820.69
2022-08-26T21:39:12.679Z,101821.59
2022-08-26T21:41:58.943Z,101834.69
2022-08-26T21:44:45.153Z,101838.88
2022-08-26T21:47:38.692Z,101829.00
2022-08-26T21:50:24.322Z,101834.47
2022-08-26T21:53:10.453Z,101838.09
2022-08-26T21:55:55.945Z,101837.97
2022-08-26T21:58:41.803Z,101841.28
2022-08-26T22:01:31.903Z,101839.38
2022-08-26T22:04:18.353Z,101848.13
2022-08-26T22:07:03.784Z,101851.88
2022-08-26T22:09:49.776Z,101850.81
2022-08-26T22:12:36.251Z,101854.16
2022-08-26T22:15:23.284Z,101854.66
2022-08-26T22:18:09.669Z,101846.47
2022-08-26T22:20:59.306Z,101850.63
2022-08-26T22:23:45.909Z,101844.31
2022-08-26T22:26:33.214Z,101846.00
2022-08-26T22:29:19.831Z,101849.44
2022-08-26T22:32:05.637Z,101847.53
2022-08-26T22:34:51.121Z,101848.97
2022-08-26T22:37:36.596Z,101846.09
2022-08-26T22:40:22.214Z,101847.06
2022-08-26T22:43:07.809Z,101841.84
2022-08-26T22:45:54.528Z,101851.38
2022-08-26T22:48:40.144Z,101849.81
2022-08-26T22:51:25.553Z,101849.63
2022-08-26T22:54:11.538Z,101849.44
2022-08-26T22:56:57.335Z,101851.06
2022-08-26T22:59:43.282Z,101850.91
2022-08-26T23:02:28.769Z,101852.47
2022-08-26T23:05:14.117Z,101849.72
2022-08-26T23:07:59.687Z,101858.00
2022-08-26T23:10:47.049Z,101862.59
2022-08-26T23:13:32.438Z,101854.47
2022-08-26T23:16:17.802Z,101861.59
2022-08-26T23:19:04.590Z,101862.06
2022-08-26T23:21:50.597Z,101854.91
2022-08-26T23:24:35.863Z,101854.84
2022-08-26T23:27:21.342Z,101858.19
2022-08-26T23:30:09.404Z,101867.94
2022-08-26T23:32:55.145Z,101852.94
2022-08-26T23:35:41.011Z,101847.59
2022-08-26T23:38:26.459Z,101845.47
2022-08-26T23:41:11.913Z,101835.72
2022-08-26T23:44:02.863Z,101854.16
2022-08-26T23:46:49.367Z,101851.38
2022-08-26T23:49:34.897Z,101852.09
2022-08-26T23:52:38.542Z,101856.34
2022-08-26T23:55:24.441Z,101850.38
2022-08-26T23:58:09.954Z,101852.03
